Time;durP1;ratioP1;P1;durP2;ratioP2;P2;SDS_P1;SDS_P2;PMS_P1;PMS_P2;Temp;Humidity;BMP_temperature;BMP_pressure;BME280_temperature;BME280_humidity;BME280_pressure;Samples;Min_cycle;Max_cycle;Signal;HPM_P1;HPM_P2
2020/12/31 00:00:53;;;;;;;18.23;14.07;;;5.70;99.90;;;;;;5055758;28;20455;-86
2020/12/31 00:03:18;;;;;;;18.40;11.50;;;5.70;99.90;;;;;;5057015;28;20166;-86
2020/12/31 00:05:44;;;;;;;14.50;10.87;;;5.70;99.90;;;;;;5058673;28;20657;-87
2020/12/31 00:08:10;;;;;;;17.00;10.97;;;5.70;99.90;;;;;;5065447;28;20611;-86
2020/12/31 00:10:36;;;;;;;18.17;11.40;;;5.70;99.90;;;;;;5055218;28;20459;-87
2020/12/31 00:13:02;;;;;;;19.50;12.93;;;5.70;99.90;;;;;;5054625;28;20660;-86
2020/12/31 00:15:27;;;;;;;16.63;11.00;;;5.70;99.90;;;;;;5056095;28;20174;-86
2020/12/31 00:17:53;;;;;;;21.30;11.80;;;5.80;99.90;;;;;;5055205;28;20447;-84
2020/12/31 00:20:19;;;;;;;14.53;10.43;;;5.80;99.90;;;;;;5055626;28;20715;-88
2020/12/31 00:22:44;;;;;;;16.90;10.80;;;5.80;99.90;;;;;;5055694;28;20223;-87
2020/12/31 00:25:11;;;;;;;17.00;11.40;;;5.80;99.90;;;;;;5037319;28;20177;-88
2020/12/31 00:27:37;;;;;;;15.70;11.37;;;5.80;99.90;;;;;;5062165;28;20216;-87
2020/12/31 00:30:10;;;;;;;18.30;11.67;;;5.80;99.90;;;;;;5054295;28;20507;-87
2020/12/31 00:32:36;;;;;;;21.80;13.00;;;5.80;99.90;;;;;;5053432;28;20416;-86
2020/12/31 00:35:04;;;;;;;15.50;11.90;;;5.80;99.90;;;;;;5055323;28;20418;-86
2020/12/31 00:37:36;;;;;;;21.20;12.60;;;5.80;99.90;;;;;;5055256;28;20247;-88
2020/12/31 00:40:06;;;;;;;13.70;10.80;;;5.80;99.90;;;;;;5055158;28;21054;-88
2020/12/31 00:42:31;;;;;;;17.83;10.07;;;5.80;99.90;;;;;;5060084;28;20448;-88
2020/12/31 00:44:57;;;;;;;14.50;11.27;;;5.80;99.90;;;;;;5037119;28;20517;-87
2020/12/31 00:47:23;;;;;;;17.50;11.40;;;5.80;99.90;;;;;;5052562;28;20228;-87
2020/12/31 00:49:48;;;;;;;14.10;10.70;;;5.80;99.90;;;;;;5054393;28;20174;-88
2020/12/31 00:52:14;;;;;;;20.03;9.97;;;5.80;99.90;;;;;;5054784;28;20247;-86
2020/12/31 00:54:39;;;;;;;14.30;10.80;;;5.80;99.90;;;;;;5037454;28;20514;-87
2020/12/31 00:57:05;;;;;;;16.50;9.53;;;5.80;99.90;;;;;;5050818;28;20181;-86
2020/12/31 00:59:31;;;;;;;15.27;10.27;;;5.80;99.90;;;;;;5054189;28;20232;-86
2020/12/31 01:01:56;;;;;;;16.40;11.10;;;5.80;99.90;;;;;;5061856;28;20642;-87
2020/12/31 01:04:22;;;;;;;11.90;9.00;;;5.80;99.90;;;;;;5054034;28;20205;-87
2020/12/31 01:06:47;;;;;;;12.40;7.63;;;5.80;99.90;;;;;;5054319;28;20213;-88
2020/12/31 01:09:13;;;;;;;13.93;10.37;;;5.80;99.90;;;;;;5036142;28;20224;-88
2020/12/31 01:11:40;;;;;;;10.73;8.50;;;5.90;99.90;;;;;;5053955;28;20572;-86
2020/12/31 01:14:07;;;;;;;13.53;9.93;;;5.80;99.90;;;;;;5054393;28;20958;-87
2020/12/31 01:16:32;;;;;;;9.70;7.67;;;5.80;99.90;;;;;;5054125;28;20773;-86
2020/12/31 01:18:58;;;;;;;10.70;9.40;;;5.80;99.90;;;;;;5054584;28;20424;-87
2020/12/31 01:21:24;;;;;;;11.57;9.20;;;5.80;99.90;;;;;;5054453;28;20173;-87
2020/12/31 01:23:49;;;;;;;8.93;7.20;;;5.80;99.90;;;;;;5054252;28;20263;-88
2020/12/31 01:26:30;;;;;;;12.30;7.80;;;5.80;99.90;;;;;;5054099;28;20574;-87
2020/12/31 01:28:55;;;;;;;11.13;7.47;;;5.80;99.90;;;;;;5051776;28;20176;-88
2020/12/31 01:31:21;;;;;;;11.87;8.73;;;5.80;99.90;;;;;;5053955;28;20408;-88
2020/12/31 01:33:47;;;;;;;10.20;6.57;;;5.80;99.90;;;;;;5056448;28;20173;-87
2020/12/31 01:36:12;;;;;;;11.40;6.37;;;5.70;99.90;;;;;;5053837;28;20180;-88
2020/12/31 01:38:38;;;;;;;8.83;6.40;;;5.80;99.90;;;;;;5053754;28;20182;-85
2020/12/31 01:41:03;;;;;;;8.77;6.70;;;5.80;99.90;;;;;;5053299;28;20181;-87
2020/12/31 01:43:29;;;;;;;11.10;6.70;;;5.80;99.90;;;;;;5053807;28;20537;-87
2020/12/31 01:45:55;;;;;;;8.57;7.60;;;5.70;99.90;;;;;;5024976;28;20173;-84
2020/12/31 01:48:21;;;;;;;8.10;7.07;;;5.70;99.90;;;;;;5053178;28;20165;-86
2020/12/31 01:50:47;;;;;;;10.27;7.40;;;5.70;99.90;;;;;;5035412;28;20261;-87
2020/12/31 01:53:14;;;;;;;9.93;8.53;;;5.70;99.90;;;;;;5053389;28;20527;-88
2020/12/31 01:55:41;;;;;;;10.03;7.33;;;5.60;99.90;;;;;;5053360;28;20162;-87
2020/12/31 01:58:08;;;;;;;10.13;6.60;;;5.50;99.90;;;;;;5053723;28;20443;-86
2020/12/31 02:00:33;;;;;;;9.93;7.40;;;5.40;99.90;;;;;;5036201;28;20495;-87
2020/12/31 02:02:59;;;;;;;13.27;8.67;;;5.40;99.90;;;;;;5053960;28;20507;-86
2020/12/31 02:05:25;;;;;;;10.97;8.50;;;5.40;99.90;;;;;;5053915;28;20181;-88
2020/12/31 02:07:51;;;;;;;12.10;8.57;;;5.30;99.90;;;;;;5035701;28;20206;-88
2020/12/31 02:10:16;;;;;;;10.47;8.20;;;5.30;99.90;;;;;;5035449;28;20456;-88
2020/12/31 02:12:42;;;;;;;16.50;9.00;;;5.20;99.90;;;;;;5053264;28;20170;-86
2020/12/31 02:15:13;;;;;;;13.67;8.60;;;5.20;99.90;;;;;;5053072;28;20221;-84
2020/12/31 02:17:39;;;;;;;10.80;8.10;;;5.10;99.90;;;;;;5050549;28;20300;-86
2020/12/31 02:20:04;;;;;;;11.47;10.27;;;5.20;99.90;;;;;;5034684;28;20495;-85
2020/12/31 02:22:30;;;;;;;15.20;10.20;;;5.20;99.90;;;;;;5052341;28;20177;-85
2020/12/31 02:24:56;;;;;;;15.93;10.00;;;5.20;99.90;;;;;;5050597;28;20184;-85
2020/12/31 02:27:22;;;;;;;16.47;12.00;;;5.20;99.90;;;;;;5051109;28;20825;-86
2020/12/31 02:29:47;;;;;;;16.20;11.17;;;5.20;99.90;;;;;;5034638;28;20232;-87
2020/12/31 02:32:13;;;;;;;13.43;10.50;;;5.10;99.90;;;;;;5052638;28;20261;-86
2020/12/31 02:34:38;;;;;;;15.10;10.47;;;5.00;99.90;;;;;;5051146;28;20187;-85
2020/12/31 02:37:04;;;;;;;16.20;11.77;;;4.90;99.90;;;;;;5052540;28;20178;-87
2020/12/31 02:39:30;;;;;;;19.70;12.70;;;4.90;99.90;;;;;;5052567;28;20205;-86
2020/12/31 02:41:55;;;;;;;18.20;11.13;;;4.90;99.90;;;;;;5052342;28;20180;-87
2020/12/31 02:44:21;;;;;;;19.37;13.93;;;4.90;99.90;;;;;;5056875;28;20169;-87
2020/12/31 02:46:46;;;;;;;17.60;11.80;;;4.90;99.90;;;;;;5052493;28;20213;-86
2020/12/31 02:49:12;;;;;;;22.77;13.67;;;4.90;99.90;;;;;;5052908;28;20181;-88
2020/12/31 02:51:37;;;;;;;19.00;12.80;;;4.90;99.90;;;;;;5057133;28;20173;-88
2020/12/31 02:54:04;;;;;;;19.67;13.60;;;5.00;99.90;;;;;;5052771;28;20169;-87
2020/12/31 02:56:30;;;;;;;21.37;13.10;;;5.00;99.90;;;;;;5052358;28;20534;-88
2020/12/31 02:58:55;;;;;;;24.43;14.53;;;5.10;99.90;;;;;;5044534;28;20419;-87
2020/12/31 03:01:22;;;;;;;26.93;15.07;;;5.10;99.90;;;;;;5059871;28;20459;-87
2020/12/31 03:03:49;;;;;;;22.43;16.13;;;5.20;99.90;;;;;;5063172;28;20431;-87
2020/12/31 03:06:15;;;;;;;18.60;13.23;;;5.20;99.90;;;;;;5033787;28;20466;-87
2020/12/31 03:08:41;;;;;;;22.33;13.90;;;5.20;99.90;;;;;;5052728;28;20593;-87
2020/12/31 03:11:12;;;;;;;19.70;12.70;;;5.20;99.90;;;;;;5054718;28;20862;-86
2020/12/31 03:13:37;;;;;;;24.40;16.40;;;5.30;99.90;;;;;;5044936;28;20185;-87
2020/12/31 03:16:03;;;;;;;22.10;13.70;;;5.30;99.90;;;;;;5052144;28;20415;-86
2020/12/31 03:18:29;;;;;;;19.57;14.90;;;5.30;99.90;;;;;;5060012;28;20192;-87
2020/12/31 03:20:54;;;;;;;21.87;14.30;;;5.30;99.90;;;;;;5052428;28;20581;-87
2020/12/31 03:23:20;;;;;;;27.10;16.53;;;5.20;99.90;;;;;;5034500;28;20170;-86
2020/12/31 03:25:46;;;;;;;22.47;16.00;;;5.20;99.90;;;;;;5052089;28;20207;-86
2020/12/31 03:28:15;;;;;;;25.60;15.97;;;5.20;99.90;;;;;;5052133;28;20209;-87
2020/12/31 03:30:42;;;;;;;21.03;14.83;;;5.10;99.90;;;;;;5052190;28;20416;-87
2020/12/31 03:33:14;;;;;;;23.47;16.00;;;5.10;99.90;;;;;;5052134;28;20462;-88
2020/12/31 03:35:47;;;;;;;24.20;15.53;;;5.00;99.90;;;;;;5047446;28;20415;-86
2020/12/31 03:38:15;;;;;;;25.20;17.67;;;5.00;99.90;;;;;;5049660;28;20448;-85
2020/12/31 03:40:41;;;;;;;23.40;15.73;;;5.00;99.90;;;;;;5051886;28;20950;-87
2020/12/31 03:43:08;;;;;;;25.10;15.60;;;5.00;99.90;;;;;;5052466;28;20443;-87
2020/12/31 03:45:34;;;;;;;27.53;17.17;;;5.10;99.90;;;;;;5034019;28;20416;-86
2020/12/31 03:48:00;;;;;;;23.63;14.90;;;5.10;99.90;;;;;;5050986;28;20499;-87
2020/12/31 03:50:26;;;;;;;24.57;16.97;;;5.10;99.90;;;;;;5052414;28;20404;-87
2020/12/31 03:52:52;;;;;;;22.40;14.37;;;5.10;99.90;;;;;;5052293;28;20423;-87
2020/12/31 03:55:17;;;;;;;26.33;18.60;;;5.00;99.90;;;;;;5058557;28;20173;-89
2020/12/31 03:57:44;;;;;;;23.93;16.47;;;5.10;99.90;;;;;;5052416;28;20256;-87
2020/12/31 04:00:10;;;;;;;22.67;15.40;;;5.10;99.90;;;;;;5052603;28;20174;-87
2020/12/31 04:02:36;;;;;;;22.40;14.73;;;5.10;99.90;;;;;;5041144;28;20424;-86
2020/12/31 04:05:02;;;;;;;25.53;17.03;;;5.10;99.90;;;;;;5051749;28;20671;-85
2020/12/31 04:07:27;;;;;;;27.53;17.30;;;5.10;99.90;;;;;;5051562;28;20672;-86
2020/12/31 04:09:53;;;;;;;25.00;16.73;;;5.10;99.90;;;;;;5057446;28;20461;-85
2020/12/31 04:12:19;;;;;;;23.90;16.47;;;5.10;99.90;;;;;;5031720;28;20210;-85
2020/12/31 04:14:44;;;;;;;21.90;16.10;;;5.20;99.90;;;;;;5031951;28;20170;-87
2020/12/31 04:17:11;;;;;;;24.87;16.70;;;5.10;99.90;;;;;;5030832;28;20182;-86
2020/12/31 04:19:40;;;;;;;26.13;15.67;;;5.10;99.90;;;;;;5026206;28;20181;-86
2020/12/31 04:22:06;;;;;;;22.07;15.60;;;5.20;99.90;;;;;;5031707;28;20425;-87
2020/12/31 04:24:32;;;;;;;22.90;14.73;;;5.20;99.90;;;;;;5058957;28;20512;-87
2020/12/31 04:26:57;;;;;;;27.30;16.67;;;5.10;99.90;;;;;;5035031;28;21036;-85
2020/12/31 04:29:23;;;;;;;25.93;15.57;;;5.20;99.90;;;;;;5035376;28;20536;-86
2020/12/31 04:31:48;;;;;;;32.77;16.37;;;5.10;99.90;;;;;;5035866;28;20186;-85
2020/12/31 04:34:14;;;;;;;21.20;15.67;;;5.20;99.90;;;;;;5034806;28;20173;-86
2020/12/31 04:36:39;;;;;;;22.93;15.77;;;5.20;99.90;;;;;;5034638;28;20594;-84
2020/12/31 04:39:06;;;;;;;29.73;16.10;;;5.10;99.90;;;;;;5034640;28;20170;-85
2020/12/31 04:41:31;;;;;;;22.43;16.70;;;5.10;99.90;;;;;;5033006;28;20175;-86
2020/12/31 04:43:57;;;;;;;22.37;15.77;;;5.10;99.90;;;;;;5033331;28;20432;-84
2020/12/31 04:46:23;;;;;;;24.10;16.33;;;5.10;99.90;;;;;;5033036;28;20194;-85
2020/12/31 04:48:59;;;;;;;24.63;15.67;;;5.20;99.90;;;;;;5033073;28;20193;-86
2020/12/31 04:51:26;;;;;;;23.60;15.47;;;5.10;99.90;;;;;;5031737;28;20994;-86
2020/12/31 04:53:54;;;;;;;23.80;17.27;;;5.10;99.90;;;;;;5033890;28;20827;-86
2020/12/31 04:56:24;;;;;;;27.47;16.97;;;5.10;99.90;;;;;;5034144;28;20416;-86
2020/12/31 04:58:50;;;;;;;28.00;17.17;;;5.10;99.90;;;;;;5033205;28;20412;-86
2020/12/31 05:01:15;;;;;;;27.13;16.23;;;5.00;99.90;;;;;;5034221;28;20409;-86
2020/12/31 05:03:41;;;;;;;27.13;17.40;;;5.00;99.90;;;;;;5059913;28;20228;-85
2020/12/31 05:06:12;;;;;;;25.30;17.57;;;5.00;99.90;;;;;;5033128;28;20171;-86
2020/12/31 05:08:38;;;;;;;25.33;16.80;;;5.00;99.90;;;;;;5034706;28;20229;-85
2020/12/31 05:11:03;;;;;;;24.33;15.67;;;5.00;99.90;;;;;;5062579;28;20751;-85
2020/12/31 05:13:29;;;;;;;24.03;17.10;;;5.00;99.90;;;;;;5053874;28;20485;-85
2020/12/31 05:15:55;;;;;;;29.50;14.37;;;5.10;99.90;;;;;;5053983;28;20224;-86
2020/12/31 05:18:29;;;;;;;24.80;17.40;;;5.10;99.90;;;;;;5063144;28;20269;-86
2020/12/31 05:20:56;;;;;;;28.43;17.10;;;5.10;99.90;;;;;;5035921;28;20494;-85
2020/12/31 05:23:27;;;;;;;25.40;16.77;;;5.00;99.90;;;;;;5053871;28;20423;-86
2020/12/31 05:25:53;;;;;;;26.33;19.00;;;5.10;99.90;;;;;;5035380;28;20982;-85
2020/12/31 05:28:28;;;;;;;23.30;15.00;;;5.00;99.90;;;;;;5053353;28;20428;-84
2020/12/31 05:31:10;;;;;;;25.53;17.57;;;5.00;99.90;;;;;;5052337;28;20416;-85
2020/12/31 05:33:39;;;;;;;27.30;16.43;;;5.00;99.90;;;;;;5052961;28;20420;-86
2020/12/31 05:36:25;;;;;;;30.40;19.20;;;4.90;99.90;;;;;;5053347;28;20403;-85
2020/12/31 05:38:57;;;;;;;27.53;17.83;;;4.80;99.90;;;;;;5052375;28;20427;-86
2020/12/31 05:41:24;;;;;;;24.27;16.67;;;4.70;99.90;;;;;;5051057;28;20412;-86
2020/12/31 05:43:54;;;;;;;23.87;15.60;;;4.70;99.90;;;;;;5053355;28;20781;-85
2020/12/31 05:46:20;;;;;;;26.63;17.33;;;4.60;99.90;;;;;;5050722;28;20507;-84
2020/12/31 05:48:54;;;;;;;23.13;14.70;;;4.50;99.90;;;;;;5052885;28;20458;-85
2020/12/31 05:51:25;;;;;;;27.73;17.40;;;4.50;99.90;;;;;;5050699;28;20407;-85
2020/12/31 05:53:51;;;;;;;21.60;14.13;;;4.40;99.90;;;;;;5034993;28;20521;-87
2020/12/31 05:56:19;;;;;;;30.03;17.93;;;4.30;99.90;;;;;;5051229;28;20423;-85
2020/12/31 05:58:49;;;;;;;24.53;16.30;;;4.30;99.90;;;;;;5063793;28;20424;-87
2020/12/31 06:01:16;;;;;;;23.40;16.13;;;4.20;99.90;;;;;;5057364;28;20409;-87
2020/12/31 06:03:52;;;;;;;26.33;15.97;;;4.20;99.90;;;;;;5053749;28;20446;-86
2020/12/31 06:06:22;;;;;;;27.53;17.33;;;4.10;99.90;;;;;;5048066;28;20450;-87
2020/12/31 06:09:02;;;;;;;28.00;16.37;;;4.10;99.90;;;;;;5053283;28;21003;-87
2020/12/31 06:11:37;;;;;;;27.87;16.10;;;4.10;99.90;;;;;;5052144;28;20466;-87
2020/12/31 06:14:03;;;;;;;25.80;15.77;;;4.00;99.90;;;;;;5057431;28;20430;-87
2020/12/31 06:16:36;;;;;;;26.10;15.83;;;4.00;99.90;;;;;;5052886;28;20486;-85
2020/12/31 06:19:09;;;;;;;24.63;15.90;;;3.90;99.90;;;;;;5051242;28;20974;-87
2020/12/31 06:21:41;;;;;;;21.93;14.80;;;3.90;99.90;;;;;;5052752;28;20444;-84
2020/12/31 06:24:12;;;;;;;25.23;15.70;;;3.90;99.90;;;;;;5060371;28;20485;-85
2020/12/31 06:26:44;;;;;;;26.23;14.93;;;3.90;99.90;;;;;;5050186;28;20456;-86
2020/12/31 06:29:09;;;;;;;29.03;15.80;;;3.80;99.90;;;;;;5034402;28;20424;-85
2020/12/31 06:31:40;;;;;;;21.50;13.50;;;3.80;99.90;;;;;;5052770;28;20415;-85
2020/12/31 06:34:06;;;;;;;28.17;16.17;;;3.80;99.90;;;;;;5053616;28;20161;-84
2020/12/31 06:36:38;;;;;;;26.13;15.07;;;3.80;99.90;;;;;;5053462;28;20439;-85
2020/12/31 06:39:04;;;;;;;23.10;14.10;;;3.70;99.90;;;;;;5053151;28;20641;-85
2020/12/31 06:41:38;;;;;;;29.37;15.73;;;3.70;99.90;;;;;;5052478;28;20445;-86
2020/12/31 06:44:11;;;;;;;23.80;14.43;;;3.70;99.90;;;;;;5052828;28;20230;-85
2020/12/31 06:46:45;;;;;;;24.57;14.37;;;3.70;99.90;;;;;;5053314;28;20482;-87
2020/12/31 06:49:11;;;;;;;24.80;13.90;;;3.70;99.90;;;;;;5038958;28;20420;-87
2020/12/31 06:51:37;;;;;;;20.27;14.10;;;3.70;99.90;;;;;;5036251;28;20902;-86
2020/12/31 06:54:03;;;;;;;28.10;14.10;;;3.70;99.90;;;;;;5053042;28;20930;-87
2020/12/31 06:56:47;;;;;;;25.53;14.43;;;3.70;99.90;;;;;;5053594;28;20197;-87
2020/12/31 06:59:26;;;;;;;25.90;15.20;;;3.70;99.90;;;;;;5053272;28;20497;-87
2020/12/31 07:01:54;;;;;;;22.53;14.47;;;3.70;99.90;;;;;;5053298;28;20415;-87
2020/12/31 07:04:30;;;;;;;26.37;13.97;;;3.70;99.90;;;;;;5053379;28;20408;-88
2020/12/31 07:06:57;;;;;;;26.33;14.33;;;3.70;99.90;;;;;;5053386;28;20457;-88
2020/12/31 07:09:37;;;;;;;21.80;13.37;;;3.70;99.90;;;;;;5035163;28;20887;-88
2020/12/31 07:12:04;;;;;;;24.60;13.10;;;3.80;99.90;;;;;;5052468;28;20424;-85
2020/12/31 07:14:31;;;;;;;19.43;13.40;;;3.80;99.90;;;;;;5052988;28;20407;-86
2020/12/31 07:17:09;;;;;;;23.50;14.80;;;3.80;99.90;;;;;;5051669;28;20429;-85
2020/12/31 07:19:45;;;;;;;18.47;12.63;;;3.80;99.90;;;;;;5051555;28;20407;-85
2020/12/31 07:22:11;;;;;;;20.10;13.77;;;3.80;99.90;;;;;;5049032;28;20488;-85
2020/12/31 07:25:08;;;;;;;23.20;13.47;;;3.80;99.90;;;;;;5051417;28;20905;-85
2020/12/31 07:27:37;;;;;;;21.27;14.37;;;3.70;99.90;;;;;;5033602;28;20204;-84
2020/12/31 07:30:08;;;;;;;20.57;11.27;;;3.80;99.90;;;;;;5051706;28;20412;-84
2020/12/31 07:32:54;;;;;;;22.97;13.30;;;3.80;99.90;;;;;;5051501;28;20407;-84
2020/12/31 07:35:24;;;;;;;19.53;12.20;;;3.80;99.90;;;;;;5033982;28;20419;-84
2020/12/31 07:37:54;;;;;;;20.10;11.80;;;3.90;99.90;;;;;;5058871;28;20840;-84
2020/12/31 07:40:49;;;;;;;19.10;11.67;;;4.00;99.90;;;;;;5049111;28;20829;-84
2020/12/31 07:43:23;;;;;;;19.73;11.00;;;4.00;99.90;;;;;;5047234;28;20454;-85
2020/12/31 07:45:51;;;;;;;18.77;10.17;;;4.00;99.90;;;;;;5051393;28;20428;-84
2020/12/31 07:48:18;;;;;;;16.53;10.23;;;4.00;99.90;;;;;;5045492;28;20506;-90
2020/12/31 07:50:44;;;;;;;15.77;11.63;;;4.00;99.90;;;;;;5051289;28;20431;-89
2020/12/31 07:53:11;;;;;;;13.83;10.03;;;4.20;99.90;;;;;;5056758;28;20428;-92
2020/12/31 07:55:37;;;;;;;20.23;10.80;;;4.20;99.90;;;;;;5034309;28;20434;-91
2020/12/31 07:58:07;;;;;;;18.30;10.07;;;4.20;99.90;;;;;;5047556;28;20442;-95
2020/12/31 08:00:33;;;;;;;16.07;10.77;;;4.30;99.90;;;;;;5064340;28;20407;-86
2020/12/31 08:03:07;;;;;;;15.90;9.53;;;4.40;99.90;;;;;;5056305;28;20916;-94
2020/12/31 08:05:32;;;;;;;16.00;10.23;;;4.40;99.90;;;;;;5055141;28;20498;-88
2020/12/31 08:07:58;;;;;;;15.40;10.10;;;4.50;99.90;;;;;;5056434;28;20574;-87
2020/12/31 08:10:24;;;;;;;12.63;8.83;;;4.50;99.90;;;;;;5056812;28;20224;-87
2020/12/31 08:13:01;;;;;;;13.93;9.70;;;4.60;99.90;;;;;;5057185;28;20295;-88
2020/12/31 08:15:27;;;;;;;13.97;9.03;;;4.60;99.90;;;;;;5056509;28;20408;-87
2020/12/31 08:17:55;;;;;;;12.57;9.57;;;4.60;99.90;;;;;;5056926;28;20438;-86
2020/12/31 08:20:23;;;;;;;14.13;9.50;;;4.70;99.90;;;;;;5055608;28;20420;-87
2020/12/31 08:22:54;;;;;;;10.90;7.90;;;4.70;99.90;;;;;;5056601;28;20419;-87
2020/12/31 08:25:25;;;;;;;13.27;8.50;;;4.70;99.90;;;;;;5055919;28;20420;-87
2020/12/31 08:27:54;;;;;;;16.50;8.00;;;4.70;99.90;;;;;;5057048;28;20874;-88
2020/12/31 08:30:20;;;;;;;12.60;7.37;;;4.80;99.90;;;;;;5056227;28;20408;-87
2020/12/31 08:32:49;;;;;;;14.57;8.73;;;4.80;99.90;;;;;;5056165;28;20415;-87
2020/12/31 08:35:28;;;;;;;15.63;8.87;;;4.80;99.90;;;;;;5055980;28;20180;-87
2020/12/31 08:38:08;;;;;;;11.60;7.43;;;4.80;99.90;;;;;;5056108;28;20415;-86
2020/12/31 08:40:50;;;;;;;13.93;7.60;;;4.90;99.90;;;;;;5055844;28;20408;-88
2020/12/31 08:43:34;;;;;;;11.80;7.50;;;5.00;99.90;;;;;;5056060;28;20898;-85
2020/12/31 08:46:00;;;;;;;11.17;6.27;;;5.00;99.90;;;;;;5055437;28;20423;-87
2020/12/31 08:48:27;;;;;;;9.33;6.90;;;5.00;99.90;;;;;;5042517;28;20428;-85
2020/12/31 08:51:07;;;;;;;13.50;6.77;;;5.00;99.90;;;;;;5037357;28;20495;-86
2020/12/31 08:53:50;;;;;;;8.80;7.63;;;5.00;99.90;;;;;;5046635;28;20416;-84
2020/12/31 08:56:16;;;;;;;8.47;6.40;;;5.00;99.90;;;;;;5062767;28;20435;-87
2020/12/31 08:58:42;;;;;;;10.23;7.53;;;5.10;99.90;;;;;;5061095;28;20428;-86
2020/12/31 09:01:07;;;;;;;10.27;6.27;;;5.10;99.90;;;;;;5055489;28;20490;-85
2020/12/31 09:03:33;;;;;;;10.00;7.20;;;5.20;99.90;;;;;;5056239;28;20166;-89
2020/12/31 09:06:00;;;;;;;9.30;5.93;;;5.10;99.90;;;;;;5056231;28;20181;-88
2020/12/31 09:08:33;;;;;;;11.53;6.17;;;5.00;99.90;;;;;;5053573;28;20268;-83
2020/12/31 09:11:06;;;;;;;8.13;6.53;;;5.00;99.90;;;;;;5039158;28;20467;-88
2020/12/31 09:13:35;;;;;;;10.97;6.90;;;5.00;99.90;;;;;;5055676;28;20411;-88
2020/12/31 09:16:14;;;;;;;9.37;6.73;;;5.00;99.90;;;;;;5055898;28;20412;-88
2020/12/31 09:18:40;;;;;;;9.20;6.70;;;5.00;99.90;;;;;;5055658;28;20498;-88
2020/12/31 09:21:06;;;;;;;8.50;6.00;;;5.00;99.90;;;;;;5055245;28;20409;-84
2020/12/31 09:23:32;;;;;;;9.00;5.83;;;5.00;99.90;;;;;;5054684;28;20466;-84
2020/12/31 09:25:58;;;;;;;9.57;6.03;;;5.10;99.90;;;;;;5055031;28;20416;-83
2020/12/31 09:28:25;;;;;;;8.93;6.20;;;5.10;99.90;;;;;;5054771;28;20292;-83
2020/12/31 09:30:51;;;;;;;8.83;6.63;;;5.20;99.90;;;;;;5054871;28;20420;-83
2020/12/31 09:33:20;;;;;;;7.97;6.00;;;5.20;99.90;;;;;;5054916;28;20426;-86
2020/12/31 09:35:46;;;;;;;9.70;5.40;;;5.30;99.90;;;;;;5054748;28;20427;-84
2020/12/31 09:38:12;;;;;;;6.53;5.80;;;5.30;99.90;;;;;;5054614;28;20412;-84
2020/12/31 09:40:39;;;;;;;12.10;7.50;;;5.30;99.90;;;;;;5054186;28;20412;-84
2020/12/31 09:43:05;;;;;;;9.70;5.73;;;5.20;99.90;;;;;;5054496;28;20871;-84
2020/12/31 09:45:31;;;;;;;7.67;5.00;;;5.20;99.90;;;;;;5054670;28;20420;-84
2020/12/31 09:47:58;;;;;;;9.63;5.93;;;5.20;99.90;;;;;;5036459;28;21005;-84
2020/12/31 09:50:24;;;;;;;8.47;5.30;;;5.20;99.90;;;;;;5054671;28;20411;-86
2020/12/31 09:52:50;;;;;;;9.13;5.70;;;5.20;99.90;;;;;;5053170;28;20916;-84
2020/12/31 09:55:15;;;;;;;8.10;6.20;;;5.20;99.90;;;;;;5053701;28;20411;-83
2020/12/31 09:57:41;;;;;;;7.20;6.00;;;5.20;99.90;;;;;;5041970;28;20219;-85
2020/12/31 10:00:07;;;;;;;6.47;4.80;;;5.30;99.90;;;;;;5036319;28;20170;-86
2020/12/31 10:02:33;;;;;;;8.13;4.97;;;5.30;99.90;;;;;;5034604;28;20174;-85
2020/12/31 10:04:58;;;;;;;10.43;6.20;;;5.30;99.90;;;;;;5034909;28;20463;-86
2020/12/31 10:07:24;;;;;;;6.63;5.27;;;5.30;99.90;;;;;;5033642;28;20535;-88
2020/12/31 10:09:49;;;;;;;6.57;4.03;;;5.30;99.90;;;;;;5034391;28;20291;-86
2020/12/31 10:12:15;;;;;;;10.37;4.73;;;5.30;99.90;;;;;;5038433;28;20173;-83
2020/12/31 10:14:42;;;;;;;6.97;6.03;;;5.30;99.90;;;;;;5041796;28;20195;-85
2020/12/31 10:17:08;;;;;;;8.10;5.20;;;5.30;99.90;;;;;;5049816;28;20169;-82
2020/12/31 10:19:35;;;;;;;9.30;5.80;;;5.30;99.90;;;;;;5048441;28;20442;-85
2020/12/31 10:22:00;;;;;;;7.33;5.00;;;5.20;99.90;;;;;;5054687;28;20774;-85
2020/12/31 10:24:26;;;;;;;8.73;6.00;;;5.20;99.90;;;;;;5053587;28;20412;-85
2020/12/31 10:26:52;;;;;;;9.40;4.60;;;5.20;99.90;;;;;;5054277;28;20867;-83
2020/12/31 10:29:18;;;;;;;9.20;6.67;;;5.20;99.90;;;;;;5036349;28;20168;-84
2020/12/31 10:31:52;;;;;;;10.00;5.23;;;5.20;99.90;;;;;;5053522;28;20511;-87
2020/12/31 10:34:18;;;;;;;5.50;2.97;;;5.20;99.90;;;;;;5053598;28;20439;-84
2020/12/31 10:36:50;;;;;;;9.70;6.47;;;5.20;99.90;;;;;;5053622;28;20419;-85
2020/12/31 10:39:16;;;;;;;7.60;4.53;;;5.20;99.90;;;;;;5053055;28;20474;-84
2020/12/31 10:41:41;;;;;;;8.10;5.10;;;5.10;99.90;;;;;;5046033;28;21510;-88
2020/12/31 10:44:07;;;;;;;6.73;4.87;;;5.10;99.90;;;;;;5036966;28;20519;-90
2020/12/31 10:46:33;;;;;;;8.47;5.00;;;5.20;99.90;;;;;;5035635;28;20209;-88
2020/12/31 10:48:59;;;;;;;8.60;4.97;;;5.10;99.90;;;;;;5036056;28;20275;-88
2020/12/31 10:51:24;;;;;;;7.23;5.10;;;5.20;99.90;;;;;;5036376;28;20459;-88
2020/12/31 10:53:50;;;;;;;7.13;4.80;;;5.20;99.90;;;;;;5016007;28;20178;-87
2020/12/31 10:56:21;;;;;;;7.20;5.10;;;5.20;99.90;;;;;;5033840;28;20639;-91
2020/12/31 10:58:47;;;;;;;9.63;5.57;;;5.20;99.90;;;;;;5034273;28;20205;-89
2020/12/31 11:01:14;;;;;;;8.03;5.47;;;5.20;99.90;;;;;;5032646;28;20502;-88
2020/12/31 11:03:41;;;;;;;6.10;4.27;;;5.10;99.90;;;;;;5025104;28;20173;-89
2020/12/31 11:06:07;;;;;;;9.33;5.40;;;5.20;99.90;;;;;;5053842;28;20409;-89
2020/12/31 11:08:33;;;;;;;5.53;4.60;;;5.20;99.90;;;;;;5053726;28;20491;-91
2020/12/31 11:10:58;;;;;;;6.40;4.87;;;5.30;99.90;;;;;;5036651;28;20170;-88
2020/12/31 11:13:25;;;;;;;7.40;5.17;;;5.30;99.90;;;;;;5034948;28;20173;-90
2020/12/31 11:15:51;;;;;;;6.90;5.20;;;5.30;99.90;;;;;;5054176;28;20245;-90
2020/12/31 11:18:16;;;;;;;8.03;5.30;;;5.30;99.90;;;;;;5054095;28;20432;-91
2020/12/31 11:20:42;;;;;;;6.17;4.23;;;5.40;99.90;;;;;;5035934;28;20174;-88
2020/12/31 11:23:07;;;;;;;5.50;4.43;;;5.40;99.90;;;;;;5035736;28;20182;-91
2020/12/31 11:25:34;;;;;;;8.13;4.40;;;5.40;99.90;;;;;;5036296;28;20185;-91
2020/12/31 11:27:59;;;;;;;6.07;4.67;;;5.40;99.90;;;;;;5054558;28;20205;-90
2020/12/31 11:30:25;;;;;;;7.10;5.23;;;5.40;99.90;;;;;;5036894;28;21007;-90
2020/12/31 11:32:51;;;;;;;5.73;4.17;;;5.40;99.90;;;;;;5057160;28;20235;-91
2020/12/31 11:35:16;;;;;;;6.23;4.97;;;5.40;99.90;;;;;;5057794;28;20535;-88
2020/12/31 11:37:42;;;;;;;6.77;4.60;;;5.40;99.90;;;;;;5057440;28;20639;-88
2020/12/31 11:40:07;;;;;;;6.60;4.37;;;5.40;99.90;;;;;;5051257;28;20201;-87
2020/12/31 11:42:36;;;;;;;7.10;4.53;;;5.40;99.90;;;;;;5057548;28;20174;-89
2020/12/31 11:45:04;;;;;;;8.27;5.30;;;5.40;99.90;;;;;;5057631;28;20181;-88
2020/12/31 11:47:30;;;;;;;5.00;4.30;;;5.40;99.90;;;;;;5039382;28;20467;-89
2020/12/31 11:49:55;;;;;;;10.30;3.70;;;5.50;99.90;;;;;;5066231;28;20833;-83
2020/12/31 11:52:21;;;;;;;7.77;4.07;;;5.40;99.90;;;;;;5050561;28;20201;-88
2020/12/31 11:54:47;;;;;;;6.70;4.67;;;5.40;99.90;;;;;;5042457;28;20170;-86
2020/12/31 11:57:12;;;;;;;6.23;3.93;;;5.50;99.90;;;;;;5043474;28;20170;-88
2020/12/31 11:59:40;;;;;;;4.77;3.13;;;5.50;99.90;;;;;;5039313;28;20291;-87
2020/12/31 12:02:07;;;;;;;7.20;4.10;;;5.40;99.90;;;;;;5055553;28;20172;-89
2020/12/31 12:04:32;;;;;;;6.67;4.43;;;5.40;99.90;;;;;;5056652;28;20423;-86
2020/12/31 12:06:58;;;;;;;4.40;3.87;;;5.40;99.90;;;;;;5039231;28;20468;-89
2020/12/31 12:09:23;;;;;;;7.63;4.97;;;5.40;99.90;;;;;;5038732;28;20229;-86
2020/12/31 12:11:49;;;;;;;4.37;3.87;;;5.40;99.90;;;;;;5058028;28;20185;-87
2020/12/31 12:14:14;;;;;;;6.43;5.07;;;5.40;99.90;;;;;;5041207;28;20181;-89
2020/12/31 12:16:41;;;;;;;8.00;4.00;;;5.40;99.90;;;;;;5042705;28;20184;-90
2020/12/31 12:19:10;;;;;;;5.13;4.40;;;5.40;99.90;;;;;;5059708;28;20177;-89
2020/12/31 12:21:39;;;;;;;5.30;3.60;;;5.40;99.90;;;;;;5058989;28;20412;-87
2020/12/31 12:24:05;;;;;;;7.90;4.83;;;5.40;99.90;;;;;;5040198;28;20424;-89
2020/12/31 12:26:32;;;;;;;7.70;5.03;;;5.40;99.90;;;;;;5022462;28;20555;-91
2020/12/31 12:28:58;;;;;;;6.20;4.33;;;5.40;99.90;;;;;;5052732;28;20435;-89
2020/12/31 12:31:30;;;;;;;6.77;4.90;;;5.40;99.90;;;;;;5057023;28;20423;-89
2020/12/31 12:33:55;;;;;;;4.97;3.37;;;5.40;99.90;;;;;;5056673;28;20181;-90
2020/12/31 12:36:21;;;;;;;6.70;3.97;;;5.30;99.90;;;;;;5057002;28;20408;-89
2020/12/31 12:38:47;;;;;;;6.10;4.70;;;5.40;99.90;;;;;;5056420;28;20188;-91
2020/12/31 12:41:12;;;;;;;4.80;3.57;;;5.40;99.90;;;;;;5057157;28;20180;-90
2020/12/31 12:43:38;;;;;;;4.93;4.40;;;5.40;99.90;;;;;;5055158;28;20170;-88
2020/12/31 12:46:03;;;;;;;6.60;4.20;;;5.40;99.90;;;;;;5056707;28;20196;-88
2020/12/31 12:48:29;;;;;;;4.90;3.47;;;5.40;99.90;;;;;;5057884;28;20209;-90